sensor_id;sensor_type;location;lat;lon;timestamp;pressure;altitude;pressure_sealevel;temperature;humidity
29169;BME280;16219;42.864;23.360;2022-07-05T00:01:46;95990.59;;;19.53;100.00
29169;BME280;16219;42.864;23.360;2022-07-05T00:04:13;95987.50;;;19.51;100.00
29169;BME280;16219;42.864;23.360;2022-07-05T00:06:40;95991.22;;;19.42;100.00
29169;BME280;16219;42.864;23.360;2022-07-05T00:09:30;95991.53;;;19.37;100.00
29169;BME280;16219;42.864;23.360;2022-07-05T00:11:57;95993.41;;;19.37;100.00
29169;BME280;16219;42.864;23.360;2022-07-05T00:14:24;95995.38;;;19.40;100.00
29169;BME280;16219;42.864;23.360;2022-07-05T00:16:51;95997.28;;;19.39;100.00
29169;BME280;16219;42.864;23.360;2022-07-05T00:19:19;95994.94;;;19.34;100.00
29169;BME280;16219;42.864;23.360;2022-07-05T00:21:47;95988.81;;;19.34;100.00
29169;BME280;16219;42.864;23.360;2022-07-05T00:24:14;95995.13;;;19.22;100.00
29169;BME280;16219;42.864;23.360;2022-07-05T00:26:42;95982.47;;;18.92;100.00
29169;BME280;16219;42.864;23.360;2022-07-05T00:29:10;95981.91;;;19.06;100.00
29169;BME280;16219;42.864;23.360;2022-07-05T00:31:37;95981.84;;;19.03;100.00
29169;BME280;16219;42.864;23.360;2022-07-05T00:34:04;95979.66;;;19.08;100.00
29169;BME280;16219;42.864;23.360;2022-07-05T00:36:31;95976.00;;;18.93;100.00
29169;BME280;16219;42.864;23.360;2022-07-05T00:38:58;95977.59;;;18.98;100.00
29169;BME280;16219;42.864;23.360;2022-07-05T00:41:26;95984.84;;;18.97;100.00
29169;BME280;16219;42.864;23.360;2022-07-05T00:43:56;95980.63;;;18.96;100.00
29169;BME280;16219;42.864;23.360;2022-07-05T00:46:23;95977.97;;;18.96;100.00
29169;BME280;16219;42.864;23.360;2022-07-05T00:48:51;95971.59;;;18.78;100.00
29169;BME280;16219;42.864;23.360;2022-07-05T00:51:19;95973.53;;;18.81;100.00
29169;BME280;16219;42.864;23.360;2022-07-05T00:53:47;95970.03;;;18.77;100.00
29169;BME280;16219;42.864;23.360;2022-07-05T00:56:14;95957.19;;;18.40;100.00
29169;BME280;16219;42.864;23.360;2022-07-05T00:58:42;95964.66;;;18.54;100.00
29169;BME280;16219;42.864;23.360;2022-07-05T01:01:11;95965.66;;;18.69;100.00
29169;BME280;16219;42.864;23.360;2022-07-05T01:03:39;95977.78;;;18.63;100.00
29169;BME280;16219;42.864;23.360;2022-07-05T01:06:07;95972.44;;;18.63;100.00
29169;BME280;16219;42.864;23.360;2022-07-05T01:08:38;95973.06;;;18.53;100.00
29169;BME280;16219;42.864;23.360;2022-07-05T01:11:07;95967.28;;;18.28;100.00
29169;BME280;16219;42.864;23.360;2022-07-05T01:13:35;95970.59;;;18.21;100.00
29169;BME280;16219;42.864;23.360;2022-07-05T01:16:03;95970.03;;;18.31;100.00
29169;BME280;16219;42.864;23.360;2022-07-05T01:18:32;95968.94;;;18.36;100.00
29169;BME280;16219;42.864;23.360;2022-07-05T01:21:01;95967.53;;;18.42;100.00
29169;BME280;16219;42.864;23.360;2022-07-05T01:23:31;95967.44;;;18.38;100.00
29169;BME280;16219;42.864;23.360;2022-07-05T01:26:01;95976.59;;;18.37;100.00
29169;BME280;16219;42.864;23.360;2022-07-05T01:28:28;95989.25;;;18.40;100.00
29169;BME280;16219;42.864;23.360;2022-07-05T01:30:56;95980.50;;;18.20;100.00
29169;BME280;16219;42.864;23.360;2022-07-05T01:33:27;95985.56;;;18.26;100.00
29169;BME280;16219;42.864;23.360;2022-07-05T01:35:55;95983.78;;;18.33;100.00
29169;BME280;16219;42.864;23.360;2022-07-05T01:38:23;95985.75;;;18.36;100.00
29169;BME280;16219;42.864;23.360;2022-07-05T01:40:52;95979.50;;;18.29;100.00
29169;BME280;16219;42.864;23.360;2022-07-05T01:43:22;95973.41;;;18.28;100.00
29169;BME280;16219;42.864;23.360;2022-07-05T01:45:50;95972.69;;;18.31;100.00
29169;BME280;16219;42.864;23.360;2022-07-05T01:48:19;95980.72;;;18.31;100.00
29169;BME280;16219;42.864;23.360;2022-07-05T01:50:49;95983.72;;;18.30;100.00
29169;BME280;16219;42.864;23.360;2022-07-05T01:53:19;95975.81;;;18.14;100.00
29169;BME280;16219;42.864;23.360;2022-07-05T01:55:48;95978.19;;;18.19;100.00
29169;BME280;16219;42.864;23.360;2022-07-05T01:58:16;95977.34;;;18.15;100.00
29169;BME280;16219;42.864;23.360;2022-07-05T02:00:45;95984.47;;;18.07;100.00
29169;BME280;16219;42.864;23.360;2022-07-05T02:03:13;95986.06;;;18.12;100.00
29169;BME280;16219;42.864;23.360;2022-07-05T02:05:41;95971.28;;;17.76;100.00
29169;BME280;16219;42.864;23.360;2022-07-05T02:08:13;95974.91;;;17.87;100.00
29169;BME280;16219;42.864;23.360;2022-07-05T02:10:41;95965.78;;;17.88;100.00
29169;BME280;16219;42.864;23.360;2022-07-05T02:13:09;95977.50;;;18.03;100.00
29169;BME280;16219;42.864;23.360;2022-07-05T02:15:40;95984.75;;;18.02;100.00
29169;BME280;16219;42.864;23.360;2022-07-05T02:18:09;95981.31;;;18.02;100.00
29169;BME280;16219;42.864;23.360;2022-07-05T02:20:40;95983.47;;;17.96;100.00
29169;BME280;16219;42.864;23.360;2022-07-05T02:23:09;95992.69;;;17.98;100.00
29169;BME280;16219;42.864;23.360;2022-07-05T02:25:37;95985.16;;;18.04;100.00
29169;BME280;16219;42.864;23.360;2022-07-05T02:28:11;95992.63;;;17.95;100.00
29169;BME280;16219;42.864;23.360;2022-07-05T02:30:41;95985.25;;;17.88;100.00
29169;BME280;16219;42.864;23.360;2022-07-05T02:33:09;95986.72;;;17.86;100.00
29169;BME280;16219;42.864;23.360;2022-07-05T02:35:36;95990.16;;;17.86;100.00
29169;BME280;16219;42.864;23.360;2022-07-05T02:38:03;95984.69;;;17.79;100.00
29169;BME280;16219;42.864;23.360;2022-07-05T02:40:30;95983.34;;;17.50;100.00
29169;BME280;16219;42.864;23.360;2022-07-05T02:42:59;95978.97;;;17.61;100.00
29169;BME280;16219;42.864;23.360;2022-07-05T02:45:26;95983.31;;;17.69;100.00
29169;BME280;16219;42.864;23.360;2022-07-05T02:47:59;95987.53;;;17.70;100.00
29169;BME280;16219;42.864;23.360;2022-07-05T02:50:29;95984.38;;;17.65;100.00
29169;BME280;16219;42.864;23.360;2022-07-05T02:52:56;95985.16;;;17.46;100.00
29169;BME280;16219;42.864;23.360;2022-07-05T02:55:23;95986.47;;;17.56;100.00
29169;BME280;16219;42.864;23.360;2022-07-05T02:57:51;95993.06;;;17.62;100.00
29169;BME280;16219;42.864;23.360;2022-07-05T03:00:19;95992.88;;;17.70;100.00
29169;BME280;16219;42.864;23.360;2022-07-05T03:02:48;95992.78;;;17.67;100.00
29169;BME280;16219;42.864;23.360;2022-07-05T03:05:17;95989.16;;;17.56;100.00
29169;BME280;16219;42.864;23.360;2022-07-05T03:07:54;95998.41;;;17.62;100.00
29169;BME280;16219;42.864;23.360;2022-07-05T03:10:22;96000.78;;;17.67;100.00
29169;BME280;16219;42.864;23.360;2022-07-05T03:12:52;96003.91;;;17.69;100.00
29169;BME280;16219;42.864;23.360;2022-07-05T03:15:19;96002.97;;;17.61;100.00
29169;BME280;16219;42.864;23.360;2022-07-05T03:17:47;96000.38;;;17.65;100.00
29169;BME280;16219;42.864;23.360;2022-07-05T03:20:18;96002.81;;;17.54;100.00
29169;BME280;16219;42.864;23.360;2022-07-05T03:22:46;96006.94;;;17.67;100.00
29169;BME280;16219;42.864;23.360;2022-07-05T03:25:14;96007.53;;;17.61;100.00
29169;BME280;16219;42.864;23.360;2022-07-05T03:27:41;95994.34;;;17.68;100.00
29169;BME280;16219;42.864;23.360;2022-07-05T03:30:10;96004.25;;;17.67;100.00
29169;BME280;16219;42.864;23.360;2022-07-05T03:32:39;96013.19;;;17.75;100.00
29169;BME280;16219;42.864;23.360;2022-07-05T03:35:07;96009.25;;;17.69;100.00
29169;BME280;16219;42.864;23.360;2022-07-05T03:37:37;96011.91;;;17.69;100.00
29169;BME280;16219;42.864;23.360;2022-07-05T03:40:05;96001.31;;;17.72;100.00
29169;BME280;16219;42.864;23.360;2022-07-05T03:42:33;96005.88;;;17.72;100.00
29169;BME280;16219;42.864;23.360;2022-07-05T03:45:01;95994.50;;;17.75;100.00
29169;BME280;16219;42.864;23.360;2022-07-05T03:47:29;95993.97;;;17.85;100.00
29169;BME280;16219;42.864;23.360;2022-07-05T03:49:57;95994.81;;;17.89;100.00
29169;BME280;16219;42.864;23.360;2022-07-05T03:52:24;95995.66;;;17.93;100.00
29169;BME280;16219;42.864;23.360;2022-07-05T03:54:53;95983.84;;;17.94;100.00
29169;BME280;16219;42.864;23.360;2022-07-05T03:57:21;95983.56;;;17.99;100.00
29169;BME280;16219;42.864;23.360;2022-07-05T03:59:48;95988.34;;;18.10;100.00
29169;BME280;16219;42.864;23.360;2022-07-05T04:02:17;95992.38;;;18.23;100.00
29169;BME280;16219;42.864;23.360;2022-07-05T04:04:44;95988.00;;;18.34;100.00
29169;BME280;16219;42.864;23.360;2022-07-05T04:07:11;95990.56;;;18.50;100.00
29169;BME280;16219;42.864;23.360;2022-07-05T04:09:39;95993.03;;;19.08;100.00
29169;BME280;16219;42.864;23.360;2022-07-05T04:12:09;95997.22;;;20.30;100.00
29169;BME280;16219;42.864;23.360;2022-07-05T04:14:37;96005.13;;;21.52;100.00
29169;BME280;16219;42.864;23.360;2022-07-05T04:17:04;96007.41;;;22.62;100.00
29169;BME280;16219;42.864;23.360;2022-07-05T04:19:32;96012.06;;;23.15;100.00
29169;BME280;16219;42.864;23.360;2022-07-05T04:22:00;96008.41;;;24.01;100.00
29169;BME280;16219;42.864;23.360;2022-07-05T04:24:28;96011.09;;;24.71;100.00
29169;BME280;16219;42.864;23.360;2022-07-05T04:26:56;96014.41;;;24.89;98.81
29169;BME280;16219;42.864;23.360;2022-07-05T04:29:26;96000.03;;;25.48;98.67
29169;BME280;16219;42.864;23.360;2022-07-05T04:31:54;96003.66;;;25.68;92.07
29169;BME280;16219;42.864;23.360;2022-07-05T04:34:21;96000.91;;;25.75;89.28
29169;BME280;16219;42.864;23.360;2022-07-05T04:36:49;96000.41;;;25.87;88.70
29169;BME280;16219;42.864;23.360;2022-07-05T04:39:16;96007.91;;;26.03;91.54
29169;BME280;16219;42.864;23.360;2022-07-05T04:41:53;96004.56;;;26.53;84.71
29169;BME280;16219;42.864;23.360;2022-07-05T04:44:21;96004.53;;;26.80;78.00
29169;BME280;16219;42.864;23.360;2022-07-05T04:46:49;96008.94;;;27.21;79.03
29169;BME280;16219;42.864;23.360;2022-07-05T04:49:17;96008.38;;;27.73;75.47
29169;BME280;16219;42.864;23.360;2022-07-05T04:51:44;96000.06;;;27.84;69.05
29169;BME280;16219;42.864;23.360;2022-07-05T04:54:11;96006.56;;;28.06;69.07
29169;BME280;16219;42.864;23.360;2022-07-05T04:56:39;96003.91;;;28.43;70.16
29169;BME280;16219;42.864;23.360;2022-07-05T04:59:06;96004.00;;;28.88;65.75
29169;BME280;16219;42.864;23.360;2022-07-05T05:01:33;96011.59;;;28.44;62.38
29169;BME280;16219;42.864;23.360;2022-07-05T05:04:02;96011.38;;;28.55;61.64
29169;BME280;16219;42.864;23.360;2022-07-05T05:06:29;96007.41;;;29.08;58.24
29169;BME280;16219;42.864;23.360;2022-07-05T05:08:56;96003.50;;;29.55;55.58
29169;BME280;16219;42.864;23.360;2022-07-05T05:11:23;96009.66;;;30.01;53.70
29169;BME280;16219;42.864;23.360;2022-07-05T05:13:50;96006.81;;;30.46;52.40
29169;BME280;16219;42.864;23.360;2022-07-05T05:16:18;96002.28;;;30.14;50.23
29169;BME280;16219;42.864;23.360;2022-07-05T05:18:45;96010.03;;;30.67;51.45
29169;BME280;16219;42.864;23.360;2022-07-05T05:21:13;96008.59;;;31.00;48.50
29169;BME280;16219;42.864;23.360;2022-07-05T05:23:40;95999.66;;;31.12;46.55
29169;BME280;16219;42.864;23.360;2022-07-05T05:26:08;96000.25;;;30.95;45.92
29169;BME280;16219;42.864;23.360;2022-07-05T05:28:35;96006.59;;;30.11;48.23
29169;BME280;16219;42.864;23.360;2022-07-05T05:31:02;96001.19;;;28.75;54.65
29169;BME280;16219;42.864;23.360;2022-07-05T05:33:29;95990.66;;;27.49;64.35
29169;BME280;16219;42.864;23.360;2022-07-05T05:35:56;95996.22;;;26.67;77.54
29169;BME280;16219;42.864;23.360;2022-07-05T05:38:25;95990.72;;;25.86;84.87
29169;BME280;16219;42.864;23.360;2022-07-05T05:40:53;95991.38;;;25.63;88.00
29169;BME280;16219;42.864;23.360;2022-07-05T05:43:20;95988.03;;;25.49;90.12
29169;BME280;16219;42.864;23.360;2022-07-05T05:45:47;95996.06;;;25.18;90.01
29169;BME280;16219;42.864;23.360;2022-07-05T05:48:15;95995.16;;;24.87;90.00
29169;BME280;16219;42.864;23.360;2022-07-05T05:50:42;95996.19;;;24.52;95.74
29169;BME280;16219;42.864;23.360;2022-07-05T05:53:10;95992.13;;;24.22;95.68
29169;BME280;16219;42.864;23.360;2022-07-05T05:55:39;95998.72;;;24.10;100.00
29169;BME280;16219;42.864;23.360;2022-07-05T05:58:14;96002.56;;;24.13;100.00
29169;BME280;16219;42.864;23.360;2022-07-05T06:00:42;95994.00;;;24.29;100.00
29169;BME280;16219;42.864;23.360;2022-07-05T06:03:10;96005.50;;;24.36;100.00
29169;BME280;16219;42.864;23.360;2022-07-05T06:05:37;95991.63;;;24.41;93.49
29169;BME280;16219;42.864;23.360;2022-07-05T06:08:04;95992.03;;;24.36;94.52
29169;BME280;16219;42.864;23.360;2022-07-05T06:10:32;95983.94;;;24.40;94.15
29169;BME280;16219;42.864;23.360;2022-07-05T06:13:04;95996.25;;;24.44;95.66
29169;BME280;16219;42.864;23.360;2022-07-05T06:15:31;95989.22;;;24.54;97.96
29169;BME280;16219;42.864;23.360;2022-07-05T06:17:59;95992.19;;;24.71;98.79
29169;BME280;16219;42.864;23.360;2022-07-05T06:20:28;95986.28;;;24.90;99.78
29169;BME280;16219;42.864;23.360;2022-07-05T06:22:56;95987.41;;;24.92;93.94
29169;BME280;16219;42.864;23.360;2022-07-05T06:25:27;95988.09;;;25.00;91.99
29169;BME280;16219;42.864;23.360;2022-07-05T06:27:56;95982.69;;;25.04;92.21
29169;BME280;16219;42.864;23.360;2022-07-05T06:30:27;95986.53;;;25.06;92.21
29169;BME280;16219;42.864;23.360;2022-07-05T06:32:54;95986.44;;;25.17;94.79
29169;BME280;16219;42.864;23.360;2022-07-05T06:35:22;95988.66;;;25.29;92.25
29169;BME280;16219;42.864;23.360;2022-07-05T06:37:51;95982.59;;;25.52;93.11
29169;BME280;16219;42.864;23.360;2022-07-05T06:40:20;95971.16;;;25.75;88.54
29169;BME280;16219;42.864;23.360;2022-07-05T06:42:49;95964.81;;;25.92;89.40
29169;BME280;16219;42.864;23.360;2022-07-05T06:45:21;95969.13;;;26.17;90.01
29169;BME280;16219;42.864;23.360;2022-07-05T06:47:57;95974.63;;;26.37;88.69
29169;BME280;16219;42.864;23.360;2022-07-05T06:50:25;95967.75;;;26.59;85.99
29169;BME280;16219;42.864;23.360;2022-07-05T06:52:53;95958.84;;;26.59;83.24
29169;BME280;16219;42.864;23.360;2022-07-05T06:55:21;95962.78;;;26.81;84.71
29169;BME280;16219;42.864;23.360;2022-07-05T06:57:56;95948.34;;;26.88;68.55
29169;BME280;16219;42.864;23.360;2022-07-05T07:00:23;95951.56;;;27.03;67.00
29169;BME280;16219;42.864;23.360;2022-07-05T07:02:50;95944.16;;;27.07;55.79
29169;BME280;16219;42.864;23.360;2022-07-05T07:05:19;95947.59;;;27.11;67.25
29169;BME280;16219;42.864;23.360;2022-07-05T07:07:47;95949.69;;;27.23;70.92
29169;BME280;16219;42.864;23.360;2022-07-05T07:10:31;95943.88;;;27.45;67.37
29169;BME280;16219;42.864;23.360;2022-07-05T07:12:59;95949.44;;;27.57;66.25
29169;BME280;16219;42.864;23.360;2022-07-05T07:15:27;95939.69;;;27.60;65.95
29169;BME280;16219;42.864;23.360;2022-07-05T07:17:54;95947.19;;;27.72;66.83
29169;BME280;16219;42.864;23.360;2022-07-05T07:20:23;95948.69;;;27.77;61.48
29169;BME280;16219;42.864;23.360;2022-07-05T07:22:51;95943.88;;;27.84;67.72
29169;BME280;16219;42.864;23.360;2022-07-05T07:25:19;95950.19;;;27.98;66.13
29169;BME280;16219;42.864;23.360;2022-07-05T07:27:50;95951.91;;;28.08;70.31
29169;BME280;16219;42.864;23.360;2022-07-05T07:30:19;95944.47;;;28.28;78.11
29169;BME280;16219;42.864;23.360;2022-07-05T07:32:47;95947.22;;;28.45;77.29
29169;BME280;16219;42.864;23.360;2022-07-05T07:35:14;95950.19;;;28.67;65.80
29169;BME280;16219;42.864;23.360;2022-07-05T07:37:43;95939.00;;;28.81;75.09
29169;BME280;16219;42.864;23.360;2022-07-05T07:40:10;95941.53;;;28.88;66.07
29169;BME280;16219;42.864;23.360;2022-07-05T07:42:37;95938.22;;;28.97;60.93
29169;BME280;16219;42.864;23.360;2022-07-05T07:45:06;95934.34;;;28.98;63.97
29169;BME280;16219;42.864;23.360;2022-07-05T07:47:35;95935.84;;;29.15;66.26
29169;BME280;16219;42.864;23.360;2022-07-05T07:50:04;95933.88;;;29.16;61.77
29169;BME280;16219;42.864;23.360;2022-07-05T07:52:31;95938.16;;;29.29;58.62
29169;BME280;16219;42.864;23.360;2022-07-05T07:55:01;95922.94;;;29.19;57.81
29169;BME280;16219;42.864;23.360;2022-07-05T07:57:28;95934.13;;;29.21;69.45
29169;BME280;16219;42.864;23.360;2022-07-05T07:59:56;95925.59;;;29.35;72.18
29169;BME280;16219;42.864;23.360;2022-07-05T08:02:23;95929.28;;;29.58;56.83
29169;BME280;16219;42.864;23.360;2022-07-05T08:04:51;95930.59;;;29.66;55.00
29169;BME280;16219;42.864;23.360;2022-07-05T08:07:19;95926.13;;;29.72;48.34
29169;BME280;16219;42.864;23.360;2022-07-05T08:09:46;95925.19;;;29.79;50.96
29169;BME280;16219;42.864;23.360;2022-07-05T08:12:14;95925.84;;;29.96;51.29
29169;BME280;16219;42.864;23.360;2022-07-05T08:14:42;95926.28;;;30.07;49.91
29169;BME280;16219;42.864;23.360;2022-07-05T08:17:09;95922.53;;;30.17;52.68
29169;BME280;16219;42.864;23.360;2022-07-05T08:19:36;95910.22;;;30.25;54.57
29169;BME280;16219;42.864;23.360;2022-07-05T08:22:21;95916.06;;;30.36;51.06
29169;BME280;16219;42.864;23.360;2022-07-05T08:24:49;95914.56;;;30.35;47.57
29169;BME280;16219;42.864;23.360;2022-07-05T08:27:18;95917.81;;;30.43;48.89
29169;BME280;16219;42.864;23.360;2022-07-05T08:29:45;95915.31;;;30.49;56.11
29169;BME280;16219;42.864;23.360;2022-07-05T08:32:12;95916.47;;;30.60;50.51
29169;BME280;16219;42.864;23.360;2022-07-05T08:34:40;95906.53;;;30.79;47.06
29169;BME280;16219;42.864;23.360;2022-07-05T08:37:07;95904.38;;;30.74;45.75
29169;BME280;16219;42.864;23.360;2022-07-05T08:39:35;95904.38;;;30.74;54.16
29169;BME280;16219;42.864;23.360;2022-07-05T08:42:04;95901.25;;;30.76;47.76
29169;BME280;16219;42.864;23.360;2022-07-05T08:44:41;95902.28;;;30.91;51.95
29169;BME280;16219;42.864;23.360;2022-07-05T08:47:10;95891.50;;;30.87;49.48
29169;BME280;16219;42.864;23.360;2022-07-05T08:49:39;95890.81;;;30.96;44.50
29169;BME280;16219;42.864;23.360;2022-07-05T08:52:10;95889.34;;;31.04;44.15
29169;BME280;16219;42.864;23.360;2022-07-05T08:54:38;95885.44;;;31.05;48.84
29169;BME280;16219;42.864;23.360;2022-07-05T08:57:05;95884.44;;;31.12;45.68
29169;BME280;16219;42.864;23.360;2022-07-05T08:59:33;95884.19;;;31.19;52.92
29169;BME280;16219;42.864;23.360;2022-07-05T09:02:02;95887.88;;;31.47;56.73
29169;BME280;16219;42.864;23.360;2022-07-05T09:04:31;95879.31;;;31.58;44.94
29169;BME280;16219;42.864;23.360;2022-07-05T09:07:04;95879.25;;;31.49;43.45
29169;BME280;16219;42.864;23.360;2022-07-05T09:09:33;95873.94;;;31.45;46.73
29169;BME280;16219;42.864;23.360;2022-07-05T09:12:08;95882.28;;;31.51;44.84
29169;BME280;16219;42.864;23.360;2022-07-05T09:14:35;95861.09;;;31.55;44.47
29169;BME280;16219;42.864;23.360;2022-07-05T09:17:05;95872.13;;;31.73;48.76
29169;BME280;16219;42.864;23.360;2022-07-05T09:19:32;95870.00;;;31.77;48.00
29169;BME280;16219;42.864;23.360;2022-07-05T09:22:01;95854.25;;;31.81;52.67
29169;BME280;16219;42.864;23.360;2022-07-05T09:24:30;95857.38;;;31.93;46.37
29169;BME280;16219;42.864;23.360;2022-07-05T09:27:04;95861.03;;;31.99;49.82
29169;BME280;16219;42.864;23.360;2022-07-05T09:29:32;95858.78;;;32.06;47.92
29169;BME280;16219;42.864;23.360;2022-07-05T09:31:59;95862.25;;;32.07;47.17
29169;BME280;16219;42.864;23.360;2022-07-05T09:34:28;95863.06;;;32.17;49.72
29169;BME280;16219;42.864;23.360;2022-07-05T09:36:57;95854.66;;;32.02;46.65
29169;BME280;16219;42.864;23.360;2022-07-05T09:39:38;95848.66;;;32.16;49.33
29169;BME280;16219;42.864;23.360;2022-07-05T09:42:14;95850.78;;;32.21;47.62
29169;BME280;16219;42.864;23.360;2022-07-05T09:44:44;95848.38;;;32.23;47.03
29169;BME280;16219;42.864;23.360;2022-07-05T09:47:13;95850.50;;;32.28;59.59
29169;BME280;16219;42.864;23.360;2022-07-05T09:49:44;95840.50;;;32.25;46.67
29169;BME280;16219;42.864;23.360;2022-07-05T09:52:25;95846.25;;;32.36;61.29
29169;BME280;16219;42.864;23.360;2022-07-05T09:55:04;95845.41;;;32.40;54.11
29169;BME280;16219;42.864;23.360;2022-07-05T09:57:32;95836.59;;;32.45;59.69
29169;BME280;16219;42.864;23.360;2022-07-05T10:00:00;95820.06;;;32.48;49.67
29169;BME280;16219;42.864;23.360;2022-07-05T10:02:39;95831.94;;;32.54;52.44
29169;BME280;16219;42.864;23.360;2022-07-05T10:05:10;95826.75;;;32.56;46.90
29169;BME280;16219;42.864;23.360;2022-07-05T10:07:39;95830.25;;;32.66;45.31
29169;BME280;16219;42.864;23.360;2022-07-05T10:10:08;95830.84;;;32.70;43.39
29169;BME280;16219;42.864;23.360;2022-07-05T10:12:37;95826.00;;;32.74;43.00
29169;BME280;16219;42.864;23.360;2022-07-05T10:15:05;95819.19;;;32.88;46.13
29169;BME280;16219;42.864;23.360;2022-07-05T10:17:37;95821.31;;;32.84;43.32
29169;BME280;16219;42.864;23.360;2022-07-05T10:20:14;95817.78;;;32.83;50.38
29169;BME280;16219;42.864;23.360;2022-07-05T10:22:43;95812.03;;;32.81;44.66
29169;BME280;16219;42.864;23.360;2022-07-05T10:25:11;95812.03;;;32.91;43.86
29169;BME280;16219;42.864;23.360;2022-07-05T10:27:39;95818.72;;;32.80;43.37
29169;BME280;16219;42.864;23.360;2022-07-05T10:30:07;95794.16;;;32.71;43.26
29169;BME280;16219;42.864;23.360;2022-07-05T10:32:38;95805.69;;;32.75;46.03
29169;BME280;16219;42.864;23.360;2022-07-05T10:35:12;95798.22;;;32.67;47.15
29169;BME280;16219;42.864;23.360;2022-07-05T10:37:45;95798.72;;;32.93;47.45
29169;BME280;16219;42.864;23.360;2022-07-05T10:40:16;95797.16;;;33.10;45.48
29169;BME280;16219;42.864;23.360;2022-07-05T10:42:48;95790.34;;;32.96;44.09
29169;BME280;16219;42.864;23.360;2022-07-05T10:45:28;95790.16;;;32.91;44.49
29169;BME280;16219;42.864;23.360;2022-07-05T10:48:18;95786.84;;;33.05;48.48
29169;BME280;16219;42.864;23.360;2022-07-05T10:50:51;95781.63;;;33.25;44.64
29169;BME280;16219;42.864;23.360;2022-07-05T10:53:21;95776.13;;;33.34;48.65
29169;BME280;16219;42.864;23.360;2022-07-05T10:55:56;95780.72;;;33.28;44.81
29169;BME280;16219;42.864;23.360;2022-07-05T10:58:31;95780.56;;;33.32;44.20
29169;BME280;16219;42.864;23.360;2022-07-05T11:04:29;95770.97;;;33.46;43.91
29169;BME280;16219;42.864;23.360;2022-07-05T11:07:02;95765.50;;;33.46;46.93
29169;BME280;16219;42.864;23.360;2022-07-05T11:09:31;95764.88;;;33.51;43.86
29169;BME280;16219;42.864;23.360;2022-07-05T11:12:15;95762.88;;;33.51;44.25
29169;BME280;16219;42.864;23.360;2022-07-05T11:14:47;95752.56;;;33.46;45.46
29169;BME280;16219;42.864;23.360;2022-07-05T11:17:34;95755.09;;;33.59;46.34
29169;BME280;16219;42.864;23.360;2022-07-05T11:20:09;95755.41;;;33.61;41.43
29169;BME280;16219;42.864;23.360;2022-07-05T11:22:42;95749.97;;;33.52;45.16
29169;BME280;16219;42.864;23.360;2022-07-05T11:25:29;95744.31;;;33.55;45.04
29169;BME280;16219;42.864;23.360;2022-07-05T11:28:05;95748.38;;;33.69;42.02
29169;BME280;16219;42.864;23.360;2022-07-05T11:30:51;95743.09;;;33.90;41.46
29169;BME280;16219;42.864;23.360;2022-07-05T11:33:28;95744.75;;;33.96;45.90
29169;BME280;16219;42.864;23.360;2022-07-05T11:35:59;95741.50;;;34.07;42.85
29169;BME280;16219;42.864;23.360;2022-07-05T11:38:30;95733.09;;;34.11;41.47
29169;BME280;16219;42.864;23.360;2022-07-05T11:41:11;95725.00;;;34.16;43.70
29169;BME280;16219;42.864;23.360;2022-07-05T11:43:40;95720.28;;;34.17;42.15
29169;BME280;16219;42.864;23.360;2022-07-05T11:46:10;95726.22;;;34.15;45.13
29169;BME280;16219;42.864;23.360;2022-07-05T11:48:38;95720.81;;;34.06;41.98
29169;BME280;16219;42.864;23.360;2022-07-05T11:51:14;95725.69;;;34.02;43.37
29169;BME280;16219;42.864;23.360;2022-07-05T11:53:44;95723.69;;;34.12;40.77
29169;BME280;16219;42.864;23.360;2022-07-05T11:56:12;95721.91;;;34.23;41.93
29169;BME280;16219;42.864;23.360;2022-07-05T11:58:39;95717.31;;;34.29;43.98
29169;BME280;16219;42.864;23.360;2022-07-05T12:01:06;95713.91;;;34.35;40.70
29169;BME280;16219;42.864;23.360;2022-07-05T12:03:34;95712.69;;;34.36;41.19
29169;BME280;16219;42.864;23.360;2022-07-05T12:06:11;95694.31;;;34.51;42.41
29169;BME280;16219;42.864;23.360;2022-07-05T12:08:39;95689.88;;;34.15;38.39
29169;BME280;16219;42.864;23.360;2022-07-05T12:11:10;95697.84;;;34.27;40.87
29169;BME280;16219;42.864;23.360;2022-07-05T12:13:54;95694.91;;;34.55;43.96
29169;BME280;16219;42.864;23.360;2022-07-05T12:16:22;95693.28;;;34.48;38.43
29169;BME280;16219;42.864;23.360;2022-07-05T12:18:52;95692.66;;;34.44;38.37
29169;BME280;16219;42.864;23.360;2022-07-05T12:21:21;95688.38;;;34.52;39.95
29169;BME280;16219;42.864;23.360;2022-07-05T12:23:49;95682.63;;;34.65;38.73
29169;BME280;16219;42.864;23.360;2022-07-05T12:26:19;95687.44;;;34.70;38.37
29169;BME280;16219;42.864;23.360;2022-07-05T12:28:47;95682.63;;;34.65;37.19
29169;BME280;16219;42.864;23.360;2022-07-05T12:31:16;95675.72;;;34.55;42.52
29169;BME280;16219;42.864;23.360;2022-07-05T12:33:44;95675.81;;;34.61;37.81
29169;BME280;16219;42.864;23.360;2022-07-05T12:36:12;95668.81;;;34.74;36.59
29169;BME280;16219;42.864;23.360;2022-07-05T12:38:39;95665.44;;;34.79;38.00
29169;BME280;16219;42.864;23.360;2022-07-05T12:41:07;95669.00;;;34.86;43.19
29169;BME280;16219;42.864;23.360;2022-07-05T12:43:49;95669.38;;;34.93;37.75
29169;BME280;16219;42.864;23.360;2022-07-05T12:46:17;95666.84;;;35.04;41.80
29169;BME280;16219;42.864;23.360;2022-07-05T12:48:44;95663.91;;;35.08;40.10
29169;BME280;16219;42.864;23.360;2022-07-05T12:51:11;95660.09;;;35.20;41.71
29169;BME280;16219;42.864;23.360;2022-07-05T12:53:49;95655.97;;;35.45;41.56
29169;BME280;16219;42.864;23.360;2022-07-05T12:56:34;95659.88;;;35.39;36.02
29169;BME280;16219;42.864;23.360;2022-07-05T12:59:20;95652.16;;;35.22;37.00
29169;BME280;16219;42.864;23.360;2022-07-05T13:01:47;95652.16;;;35.22;42.04